sensor_id;sensor_type;location;lat;lon;timestamp;pressure;altitude;pressure_sealevel;temperature;humidity
64876;BME280;51369;49.862;9.908;2023-02-12T00:00:43;100310.56;;;7.04;76.35
64876;BME280;51369;49.862;9.908;2023-02-12T00:03:09;100307.88;;;7.03;76.63
64876;BME280;51369;49.862;9.908;2023-02-12T00:05:39;100315.91;;;7.03;76.31
64876;BME280;51369;49.862;9.908;2023-02-12T00:08:06;100321.28;;;7.01;76.45
64876;BME280;51369;49.862;9.908;2023-02-12T00:10:31;100318.59;;;7.01;76.70
64876;BME280;51369;49.862;9.908;2023-02-12T00:12:57;100322.19;;;7.02;76.73
64876;BME280;51369;49.862;9.908;2023-02-12T00:15:22;100319.50;;;7.00;76.57
64876;BME280;51369;49.862;9.908;2023-02-12T00:17:48;100317.69;;;6.99;75.77
64876;BME280;51369;49.862;9.908;2023-02-12T00:20:13;100313.22;;;6.97;76.05
64876;BME280;51369;49.862;9.908;2023-02-12T00:22:39;100315.91;;;6.95;76.03
64876;BME280;51369;49.862;9.908;2023-02-12T00:25:04;100322.19;;;6.93;75.45
64876;BME280;51369;49.862;9.908;2023-02-12T00:27:34;100311.44;;;6.90;75.40
64876;BME280;51369;49.862;9.908;2023-02-12T00:29:59;100319.50;;;6.88;76.08
64876;BME280;51369;49.862;9.908;2023-02-12T00:32:25;100317.69;;;6.84;75.98
64876;BME280;51369;49.862;9.908;2023-02-12T00:34:50;100318.56;;;6.81;76.09
64876;BME280;51369;49.862;9.908;2023-02-12T00:37:16;100314.09;;;6.76;76.48
64876;BME280;51369;49.862;9.908;2023-02-12T00:39:41;100313.16;;;6.71;75.81
64876;BME280;51369;49.862;9.908;2023-02-12T00:42:07;100322.09;;;6.64;76.28
64876;BME280;51369;49.862;9.908;2023-02-12T00:44:33;100317.59;;;6.60;76.19
64876;BME280;51369;49.862;9.908;2023-02-12T00:46:58;100322.06;;;6.56;76.36
64876;BME280;51369;49.862;9.908;2023-02-12T00:49:27;100320.25;;;6.50;76.74
64876;BME280;51369;49.862;9.908;2023-02-12T00:51:53;100322.00;;;6.47;76.91
64876;BME280;51369;49.862;9.908;2023-02-12T00:54:18;100312.16;;;6.41;76.65
64876;BME280;51369;49.862;9.908;2023-02-12T00:56:43;100321.06;;;6.37;76.90
64876;BME280;51369;49.862;9.908;2023-02-12T00:59:09;100324.63;;;6.35;76.82
64876;BME280;51369;49.862;9.908;2023-02-12T01:01:34;100338.03;;;6.32;77.50
64876;BME280;51369;49.862;9.908;2023-02-12T01:04:01;100329.06;;;6.30;77.23
64876;BME280;51369;49.862;9.908;2023-02-12T01:06:26;100323.69;;;6.28;77.75
64876;BME280;51369;49.862;9.908;2023-02-12T01:08:52;100320.13;;;6.28;77.82
64876;BME280;51369;49.862;9.908;2023-02-12T01:11:18;100326.38;;;6.27;77.55
64876;BME280;51369;49.862;9.908;2023-02-12T01:13:43;100328.16;;;6.26;77.83
64876;BME280;51369;49.862;9.908;2023-02-12T01:16:14;100326.34;;;6.24;77.49
64876;BME280;51369;49.862;9.908;2023-02-12T01:18:40;100329.94;;;6.24;77.52
64876;BME280;51369;49.862;9.908;2023-02-12T01:21:17;100326.34;;;6.22;77.72
64876;BME280;51369;49.862;9.908;2023-02-12T01:23:43;100327.25;;;6.23;77.19
64876;BME280;51369;49.862;9.908;2023-02-12T01:26:11;100320.09;;;6.23;77.67
64876;BME280;51369;49.862;9.908;2023-02-12T01:28:41;100314.72;;;6.22;77.83
64876;BME280;51369;49.862;9.908;2023-02-12T01:31:12;100308.47;;;6.21;77.81
64876;BME280;51369;49.862;9.908;2023-02-12T01:33:38;100297.72;;;6.21;77.68
64876;BME280;51369;49.862;9.908;2023-02-12T01:36:04;100295.03;;;6.18;77.80
64876;BME280;51369;49.862;9.908;2023-02-12T01:38:30;100295.91;;;6.17;78.02
64876;BME280;51369;49.862;9.908;2023-02-12T01:41:04;100295.00;;;6.12;77.70
64876;BME280;51369;49.862;9.908;2023-02-12T01:43:30;100291.38;;;6.07;77.66
64876;BME280;51369;49.862;9.908;2023-02-12T01:45:58;100286.88;;;6.00;76.92
64876;BME280;51369;49.862;9.908;2023-02-12T01:48:26;100293.97;;;5.93;77.45
64876;BME280;51369;49.862;9.908;2023-02-12T01:50:54;100302.81;;;5.84;77.18
64876;BME280;51369;49.862;9.908;2023-02-12T01:53:22;100301.88;;;5.76;77.28
64876;BME280;51369;49.862;9.908;2023-02-12T01:55:52;100304.47;;;5.67;76.46
64876;BME280;51369;49.862;9.908;2023-02-12T01:58:19;100296.38;;;5.60;76.89
64876;BME280;51369;49.862;9.908;2023-02-12T02:00:45;100299.88;;;5.51;77.45
64876;BME280;51369;49.862;9.908;2023-02-12T02:03:11;100298.91;;;5.41;77.29
64876;BME280;51369;49.862;9.908;2023-02-12T02:05:49;100306.88;;;5.32;76.99
64876;BME280;51369;49.862;9.908;2023-02-12T02:08:18;100300.53;;;5.22;77.54
64876;BME280;51369;49.862;9.908;2023-02-12T02:10:43;100299.56;;;5.13;77.72
64876;BME280;51369;49.862;9.908;2023-02-12T02:13:09;100299.47;;;5.02;77.15
64876;BME280;51369;49.862;9.908;2023-02-12T02:15:58;100302.03;;;4.92;77.76
64876;BME280;51369;49.862;9.908;2023-02-12T02:18:52;100309.91;;;4.78;76.92
64876;BME280;51369;49.862;9.908;2023-02-12T02:24:31;100307.00;;;4.60;77.73
64876;BME280;51369;49.862;9.908;2023-02-12T02:37:25;100296.75;;;4.23;78.26
64876;BME280;51369;49.862;9.908;2023-02-12T02:39:58;100305.63;;;4.21;79.27
64876;BME280;51369;49.862;9.908;2023-02-12T02:45:50;100308.28;;;4.21;79.90
64876;BME280;51369;49.862;9.908;2023-02-12T02:48:21;100309.16;;;4.18;80.42
64876;BME280;51369;49.862;9.908;2023-02-12T02:50:53;100310.91;;;4.16;80.35
64876;BME280;51369;49.862;9.908;2023-02-12T02:53:34;100311.78;;;4.15;81.56
64876;BME280;51369;49.862;9.908;2023-02-12T02:56:04;100324.25;;;4.15;81.35
64876;BME280;51369;49.862;9.908;2023-02-12T02:58:35;100317.09;;;4.14;81.57
64876;BME280;51369;49.862;9.908;2023-02-12T03:03:49;100318.84;;;4.12;82.10
64876;BME280;51369;49.862;9.908;2023-02-12T03:06:32;100316.16;;;4.09;80.77
64876;BME280;51369;49.862;9.908;2023-02-12T03:09:05;100320.56;;;4.05;81.25
64876;BME280;51369;49.862;9.908;2023-02-12T03:11:33;100317.84;;;4.02;80.91
64876;BME280;51369;49.862;9.908;2023-02-12T03:16:39;100318.59;;;3.93;81.24
64876;BME280;51369;49.862;9.908;2023-02-12T03:19:10;100323.00;;;3.90;81.54
64876;BME280;51369;49.862;9.908;2023-02-12T03:21:50;100321.13;;;3.84;80.91
64876;BME280;51369;49.862;9.908;2023-02-12T03:24:31;100329.94;;;3.79;80.40
64876;BME280;51369;49.862;9.908;2023-02-12T03:27:48;100322.78;;;3.76;80.69
64876;BME280;51369;49.862;9.908;2023-02-12T03:29:54;100330.78;;;3.76;80.87
64876;BME280;51369;49.862;9.908;2023-02-12T03:32:41;100337.00;;;3.74;81.04
64876;BME280;51369;49.862;9.908;2023-02-12T03:38:01;100325.44;;;3.76;81.71
64876;BME280;51369;49.862;9.908;2023-02-12T03:40:31;100324.69;;;3.83;82.60
64876;BME280;51369;49.862;9.908;2023-02-12T03:45:44;100324.84;;;3.94;81.92
64876;BME280;51369;49.862;9.908;2023-02-12T03:48:30;100316.88;;;3.97;82.92
64876;BME280;51369;49.862;9.908;2023-02-12T03:51:35;100319.63;;;4.03;82.41
64876;BME280;51369;49.862;9.908;2023-02-12T03:54:02;100330.47;;;4.14;82.49
64876;BME280;51369;49.862;9.908;2023-02-12T03:56:35;100322.53;;;4.18;83.21
64876;BME280;51369;49.862;9.908;2023-02-12T03:59:01;100336.00;;;4.26;82.71
64876;BME280;51369;49.862;9.908;2023-02-12T04:01:27;100331.59;;;4.31;83.09
64876;BME280;51369;49.862;9.908;2023-02-12T04:03:54;100332.50;;;4.30;83.06
64876;BME280;51369;49.862;9.908;2023-02-12T04:06:24;100331.56;;;4.28;83.10
64876;BME280;51369;49.862;9.908;2023-02-12T04:08:51;100335.13;;;4.27;82.22
64876;BME280;51369;49.862;9.908;2023-02-12T04:16:59;100337.75;;;4.24;82.04
64876;BME280;51369;49.862;9.908;2023-02-12T04:19:39;100332.34;;;4.21;81.21
64876;BME280;51369;49.862;9.908;2023-02-12T04:22:54;100327.84;;;4.17;81.60
64876;BME280;51369;49.862;9.908;2023-02-12T04:28:27;100333.97;;;4.10;81.20
64876;BME280;51369;49.862;9.908;2023-02-12T04:31:01;100336.59;;;4.07;80.94
64876;BME280;51369;49.862;9.908;2023-02-12T04:33:34;100334.75;;;4.03;80.55
64876;BME280;51369;49.862;9.908;2023-02-12T04:36:12;100332.91;;;3.99;79.97
64876;BME280;51369;49.862;9.908;2023-02-12T04:38:45;100349.84;;;3.99;79.65
64876;BME280;51369;49.862;9.908;2023-02-12T04:41:12;100344.50;;;3.98;80.63
64876;BME280;51369;49.862;9.908;2023-02-12T04:43:38;100344.47;;;3.96;80.09
64876;BME280;51369;49.862;9.908;2023-02-12T04:46:04;100352.41;;;3.91;80.29
64876;BME280;51369;49.862;9.908;2023-02-12T04:48:30;100346.06;;;3.85;79.89
64876;BME280;51369;49.862;9.908;2023-02-12T04:50:56;100345.97;;;3.79;80.05
64876;BME280;51369;49.862;9.908;2023-02-12T04:53:21;100351.28;;;3.76;80.48
64876;BME280;51369;49.862;9.908;2023-02-12T04:55:46;100346.72;;;3.70;79.71
64876;BME280;51369;49.862;9.908;2023-02-12T04:58:13;100348.44;;;3.65;79.35
64876;BME280;51369;49.862;9.908;2023-02-12T05:00:38;100348.34;;;3.60;79.23
64876;BME280;51369;49.862;9.908;2023-02-12T05:03:04;100346.50;;;3.56;80.14
64876;BME280;51369;49.862;9.908;2023-02-12T05:05:30;100352.66;;;3.52;79.43
64876;BME280;51369;49.862;9.908;2023-02-12T05:07:55;100357.94;;;3.49;79.97
64876;BME280;51369;49.862;9.908;2023-02-12T05:10:20;100353.47;;;3.47;79.99
64876;BME280;51369;49.862;9.908;2023-02-12T05:12:46;100355.25;;;3.46;80.96
64876;BME280;51369;49.862;9.908;2023-02-12T05:15:11;100353.47;;;3.45;81.14
64876;BME280;51369;49.862;9.908;2023-02-12T05:17:36;100351.63;;;3.43;80.75
64876;BME280;51369;49.862;9.908;2023-02-12T05:20:03;100348.00;;;3.39;81.33
64876;BME280;51369;49.862;9.908;2023-02-12T05:22:28;100355.06;;;3.36;80.86
64876;BME280;51369;49.862;9.908;2023-02-12T05:24:53;100353.25;;;3.33;81.59
64876;BME280;51369;49.862;9.908;2023-02-12T05:27:19;100358.53;;;3.30;81.50
64876;BME280;51369;49.862;9.908;2023-02-12T05:29:44;100354.03;;;3.28;81.27
64876;BME280;51369;49.862;9.908;2023-02-12T05:32:09;100356.72;;;3.28;81.48
64876;BME280;51369;49.862;9.908;2023-02-12T05:34:35;100354.97;;;3.30;82.26
64876;BME280;51369;49.862;9.908;2023-02-12T05:37:01;100359.47;;;3.32;81.57
64876;BME280;51369;49.862;9.908;2023-02-12T05:39:26;100366.59;;;3.33;83.01
64876;BME280;51369;49.862;9.908;2023-02-12T05:41:52;100369.28;;;3.35;82.44
64876;BME280;51369;49.862;9.908;2023-02-12T05:44:17;100363.13;;;3.39;82.89
64876;BME280;51369;49.862;9.908;2023-02-12T05:46:43;100365.00;;;3.43;82.32
64876;BME280;51369;49.862;9.908;2023-02-12T05:49:09;100366.81;;;3.45;82.56
64876;BME280;51369;49.862;9.908;2023-02-12T05:51:35;100363.28;;;3.46;83.44
64876;BME280;51369;49.862;9.908;2023-02-12T05:54:03;100366.81;;;3.47;81.67
64876;BME280;51369;49.862;9.908;2023-02-12T05:56:31;100374.81;;;3.47;82.29
64876;BME280;51369;49.862;9.908;2023-02-12T05:58:59;100380.19;;;3.48;82.04
64876;BME280;51369;49.862;9.908;2023-02-12T06:01:32;100388.22;;;3.50;82.52
64876;BME280;51369;49.862;9.908;2023-02-12T06:03:59;100386.50;;;3.53;82.50
64876;BME280;51369;49.862;9.908;2023-02-12T06:06:26;100383.00;;;3.56;82.88
64876;BME280;51369;49.862;9.908;2023-02-12T06:08:51;100377.72;;;3.60;83.28
64876;BME280;51369;49.862;9.908;2023-02-12T06:11:16;100391.16;;;3.65;82.96
64876;BME280;51369;49.862;9.908;2023-02-12T06:13:42;100386.75;;;3.67;82.52
64876;BME280;51369;49.862;9.908;2023-02-12T06:18:47;100389.53;;;3.73;82.68
64876;BME280;51369;49.862;9.908;2023-02-12T06:21:13;100395.81;;;3.77;82.18
64876;BME280;51369;49.862;9.908;2023-02-12T06:23:39;100391.44;;;3.82;82.85
64876;BME280;51369;49.862;9.908;2023-02-12T06:26:05;100395.09;;;3.87;82.77
64876;BME280;51369;49.862;9.908;2023-02-12T06:28:30;100396.03;;;3.90;82.65
64876;BME280;51369;49.862;9.908;2023-02-12T06:30:56;100396.06;;;3.92;83.25
64876;BME280;51369;49.862;9.908;2023-02-12T06:33:21;100393.44;;;3.95;82.28
64876;BME280;51369;49.862;9.908;2023-02-12T06:35:47;100397.06;;;3.99;82.39
64876;BME280;51369;49.862;9.908;2023-02-12T06:38:13;100393.56;;;4.03;82.52
64876;BME280;51369;49.862;9.908;2023-02-12T06:40:38;100392.69;;;4.04;81.78
64876;BME280;51369;49.862;9.908;2023-02-12T06:43:03;100394.53;;;4.06;82.01
64876;BME280;51369;49.862;9.908;2023-02-12T06:45:29;100398.13;;;4.08;82.57
64876;BME280;51369;49.862;9.908;2023-02-12T06:47:54;100401.72;;;4.10;82.24
64876;BME280;51369;49.862;9.908;2023-02-12T06:50:20;100411.56;;;4.13;82.31
64876;BME280;51369;49.862;9.908;2023-02-12T06:52:45;100404.47;;;4.16;82.33
64876;BME280;51369;49.862;9.908;2023-02-12T06:55:10;100404.56;;;4.21;82.48
64876;BME280;51369;49.862;9.908;2023-02-12T06:57:36;100409.06;;;4.25;82.12
64876;BME280;51369;49.862;9.908;2023-02-12T07:00:01;100407.38;;;4.30;82.20
64876;BME280;51369;49.862;9.908;2023-02-12T07:02:27;100416.34;;;4.35;82.54
64876;BME280;51369;49.862;9.908;2023-02-12T07:04:52;100423.53;;;4.39;82.79
64876;BME280;51369;49.862;9.908;2023-02-12T07:07:18;100412.00;;;4.42;82.71
64876;BME280;51369;49.862;9.908;2023-02-12T07:09:43;100418.31;;;4.47;81.90
64876;BME280;51369;49.862;9.908;2023-02-12T07:12:08;100421.06;;;4.51;82.47
64876;BME280;51369;49.862;9.908;2023-02-12T07:14:34;100419.34;;;4.56;82.02
64876;BME280;51369;49.862;9.908;2023-02-12T07:16:59;100429.22;;;4.61;82.31
64876;BME280;51369;49.862;9.908;2023-02-12T07:19:28;100438.19;;;4.66;81.77
64876;BME280;51369;49.862;9.908;2023-02-12T07:21:54;100440.09;;;4.74;82.10
64876;BME280;51369;49.862;9.908;2023-02-12T07:24:20;100440.16;;;4.79;81.96
64876;BME280;51369;49.862;9.908;2023-02-12T07:26:45;100439.31;;;4.83;82.15
64876;BME280;51369;49.862;9.908;2023-02-12T07:29:10;100446.50;;;4.87;81.84
64876;BME280;51369;49.862;9.908;2023-02-12T07:31:36;100439.44;;;4.92;81.96
64876;BME280;51369;49.862;9.908;2023-02-12T07:34:02;100449.28;;;4.95;81.13
64876;BME280;51369;49.862;9.908;2023-02-12T07:36:29;100442.19;;;4.98;80.86
64876;BME280;51369;49.862;9.908;2023-02-12T07:38:56;100440.47;;;5.02;81.40
64876;BME280;51369;49.862;9.908;2023-02-12T07:41:23;100447.66;;;5.06;81.03
64876;BME280;51369;49.862;9.908;2023-02-12T07:43:54;100444.09;;;5.07;80.86
64876;BME280;51369;49.862;9.908;2023-02-12T07:46:26;100451.28;;;5.11;80.69
64876;BME280;51369;49.862;9.908;2023-02-12T07:48:56;100449.53;;;5.14;80.36
64876;BME280;51369;49.862;9.908;2023-02-12T07:51:22;100458.50;;;5.16;80.23
64876;BME280;51369;49.862;9.908;2023-02-12T07:53:49;100463.88;;;5.18;79.55
64876;BME280;51369;49.862;9.908;2023-02-12T07:56:21;100461.22;;;5.19;79.36
64876;BME280;51369;49.862;9.908;2023-02-12T07:58:48;100458.53;;;5.22;79.78
64876;BME280;51369;49.862;9.908;2023-02-12T08:01:23;100463.91;;;5.24;79.56
64876;BME280;51369;49.862;9.908;2023-02-12T08:03:49;100462.97;;;5.17;79.97
64876;BME280;51369;49.862;9.908;2023-02-12T08:06:24;100463.91;;;5.24;78.98
64876;BME280;51369;49.862;9.908;2023-02-12T08:08:56;100463.06;;;5.28;79.01
64876;BME280;51369;49.862;9.908;2023-02-12T08:11:22;100466.69;;;5.32;79.45
64876;BME280;51369;49.862;9.908;2023-02-12T08:13:48;100471.16;;;5.34;79.73
64876;BME280;51369;49.862;9.908;2023-02-12T08:16:16;100480.16;;;5.38;79.22
64876;BME280;51369;49.862;9.908;2023-02-12T08:18:43;100481.97;;;5.42;78.92
64876;BME280;51369;49.862;9.908;2023-02-12T08:21:12;100484.69;;;5.45;79.06
64876;BME280;51369;49.862;9.908;2023-02-12T08:23:38;100474.91;;;5.47;79.41
64876;BME280;51369;49.862;9.908;2023-02-12T08:26:13;100478.53;;;5.52;79.86
64876;BME280;51369;49.862;9.908;2023-02-12T08:28:44;100485.72;;;5.56;78.97
64876;BME280;51369;49.862;9.908;2023-02-12T08:31:13;100483.97;;;5.61;79.35
64876;BME280;51369;49.862;9.908;2023-02-12T08:33:39;100489.41;;;5.66;79.60
64876;BME280;51369;49.862;9.908;2023-02-12T08:38:34;100491.28;;;5.74;79.53
64876;BME280;51369;49.862;9.908;2023-02-12T08:41:04;100494.03;;;5.80;79.42
64876;BME280;51369;49.862;9.908;2023-02-12T08:43:30;100484.22;;;5.84;79.54
64876;BME280;51369;49.862;9.908;2023-02-12T08:46:01;100486.94;;;5.87;79.04
64876;BME280;51369;49.862;9.908;2023-02-12T08:48:26;100480.78;;;5.93;79.61
64876;BME280;51369;49.862;9.908;2023-02-12T08:50:52;100492.41;;;5.95;79.31
64876;BME280;51369;49.862;9.908;2023-02-12T08:53:17;100493.31;;;5.97;79.21
64876;BME280;51369;49.862;9.908;2023-02-12T08:55:49;100491.53;;;5.97;79.94
64876;BME280;51369;49.862;9.908;2023-02-12T08:58:15;100496.94;;;6.00;79.69
64876;BME280;51369;49.862;9.908;2023-02-12T09:00:40;100501.44;;;6.06;80.28
64876;BME280;51369;49.862;9.908;2023-02-12T09:03:05;100490.78;;;6.12;80.61
64876;BME280;51369;49.862;9.908;2023-02-12T09:05:31;100490.84;;;6.18;80.30
64876;BME280;51369;49.862;9.908;2023-02-12T09:07:56;100487.31;;;6.25;81.29
64876;BME280;51369;49.862;9.908;2023-02-12T09:10:21;100490.06;;;6.33;80.68
64876;BME280;51369;49.862;9.908;2023-02-12T09:12:46;100491.94;;;6.43;81.52
64876;BME280;51369;49.862;9.908;2023-02-12T09:15:12;100496.47;;;6.51;81.24
64876;BME280;51369;49.862;9.908;2023-02-12T09:17:37;100492.94;;;6.59;80.90
64876;BME280;51369;49.862;9.908;2023-02-12T09:20:05;100491.22;;;6.67;81.13
64876;BME280;51369;49.862;9.908;2023-02-12T09:22:31;100485.03;;;6.77;81.35
64876;BME280;51369;49.862;9.908;2023-02-12T09:24:56;100487.78;;;6.88;81.35
64876;BME280;51369;49.862;9.908;2023-02-12T09:27:22;100491.38;;;6.97;81.24
64876;BME280;51369;49.862;9.908;2023-02-12T09:29:47;100486.97;;;7.08;80.54
64876;BME280;51369;49.862;9.908;2023-02-12T09:32:12;100481.63;;;7.17;80.72
64876;BME280;51369;49.862;9.908;2023-02-12T09:34:38;100484.34;;;7.27;81.18
64876;BME280;51369;49.862;9.908;2023-02-12T09:37:03;100494.25;;;7.38;81.06
64876;BME280;51369;49.862;9.908;2023-02-12T09:39:29;100475.47;;;7.49;81.28
64876;BME280;51369;49.862;9.908;2023-02-12T09:42:16;100484.47;;;7.60;81.22
64876;BME280;51369;49.862;9.908;2023-02-12T09:44:52;100484.50;;;7.74;80.66
64876;BME280;51369;49.862;9.908;2023-02-12T09:47:26;100487.22;;;7.86;80.42
64876;BME280;51369;49.862;9.908;2023-02-12T09:52:27;100488.16;;;8.12;80.54
64876;BME280;51369;49.862;9.908;2023-02-12T09:54:53;100492.66;;;8.26;80.58
64876;BME280;51369;49.862;9.908;2023-02-12T09:57:28;100491.78;;;8.37;79.90
64876;BME280;51369;49.862;9.908;2023-02-12T10:00:03;100486.41;;;8.50;80.04
64876;BME280;51369;49.862;9.908;2023-02-12T10:02:30;100485.50;;;8.60;79.33
64876;BME280;51369;49.862;9.908;2023-02-12T10:04:55;100487.25;;;8.68;79.29
64876;BME280;51369;49.862;9.908;2023-02-12T10:13:07;100477.28;;;9.05;78.08
64876;BME280;51369;49.862;9.908;2023-02-12T10:15:51;100479.94;;;9.18;78.69
64876;BME280;51369;49.862;9.908;2023-02-12T10:21:08;100478.03;;;9.47;77.98
64876;BME280;51369;49.862;9.908;2023-02-12T10:26:27;100479.75;;;9.63;76.92
64876;BME280;51369;49.862;9.908;2023-02-12T10:28:53;100473.41;;;9.70;76.49
64876;BME280;51369;49.862;9.908;2023-02-12T10:31:30;100466.19;;;9.77;77.00
64876;BME280;51369;49.862;9.908;2023-02-12T10:33:57;100463.44;;;9.86;76.25
64876;BME280;51369;49.862;9.908;2023-02-12T10:39:03;100466.91;;;10.02;75.86
64876;BME280;51369;49.862;9.908;2023-02-12T10:41:31;100463.25;;;10.10;76.07
64876;BME280;51369;49.862;9.908;2023-02-12T10:43:57;100465.00;;;10.19;76.70
64876;BME280;51369;49.862;9.908;2023-02-12T10:46:22;100458.63;;;10.29;75.62
64876;BME280;51369;49.862;9.908;2023-02-12T10:48:50;100459.47;;;10.36;75.90
64876;BME280;51369;49.862;9.908;2023-02-12T10:51:40;100459.47;;;10.39;74.50
64876;BME280;51369;49.862;9.908;2023-02-12T10:54:34;100460.28;;;10.42;74.88
64876;BME280;51369;49.862;9.908;2023-02-12T10:57:26;100454.88;;;10.44;74.35
64876;BME280;51369;49.862;9.908;2023-02-12T10:59:55;100449.44;;;10.49;74.88
64876;BME280;51369;49.862;9.908;2023-02-12T11:02:32;100450.34;;;10.49;74.17
64876;BME280;51369;49.862;9.908;2023-02-12T11:04:59;100454.75;;;10.56;74.21
64876;BME280;51369;49.862;9.908;2023-02-12T11:07:48;100455.63;;;10.61;74.58
64876;BME280;51369;49.862;9.908;2023-02-12T11:13:25;100440.19;;;10.74;73.45
64876;BME280;51369;49.862;9.908;2023-02-12T11:15:52;100445.47;;;10.83;73.89
64876;BME280;51369;49.862;9.908;2023-02-12T11:18:27;100450.78;;;10.92;74.17
64876;BME280;51369;49.862;9.908;2023-02-12T11:20:57;100441.59;;;11.07;73.29
64876;BME280;51369;49.862;9.908;2023-02-12T11:26:06;100434.94;;;11.37;73.24
64876;BME280;51369;49.862;9.908;2023-02-12T11:28:34;100430.22;;;11.53;73.50
64876;BME280;51369;49.862;9.908;2023-02-12T11:31:20;100424.59;;;11.66;72.66
64876;BME280;51369;49.862;9.908;2023-02-12T11:34:05;100417.22;;;11.81;72.83
64876;BME280;51369;49.862;9.908;2023-02-12T11:36:34;100416.09;;;11.94;72.11
64876;BME280;51369;49.862;9.908;2023-02-12T11:39:01;100421.31;;;12.06;71.11
64876;BME280;51369;49.862;9.908;2023-02-12T11:41:33;100421.09;;;12.17;70.83
64876;BME280;51369;49.862;9.908;2023-02-12T11:44:12;100416.38;;;12.29;70.74
64876;BME280;51369;49.862;9.908;2023-02-12T11:46:55;100419.91;;;12.34;70.19
64876;BME280;51369;49.862;9.908;2023-02-12T11:49:27;100411.72;;;12.37;69.95
64876;BME280;51369;49.862;9.908;2023-02-12T11:51:56;100413.44;;;12.43;70.32
64876;BME280;51369;49.862;9.908;2023-02-12T11:54:24;100412.44;;;12.49;69.75
64876;BME280;51369;49.862;9.908;2023-02-12T11:56:50;100406.94;;;12.53;69.16
64876;BME280;51369;49.862;9.908;2023-02-12T11:59:42;100399.69;;;12.54;68.88
64876;BME280;51369;49.862;9.908;2023-02-12T12:02:24;100396.91;;;12.58;69.12
64876;BME280;51369;49.862;9.908;2023-02-12T12:04:54;100389.59;;;12.62;67.95
64876;BME280;51369;49.862;9.908;2023-02-12T12:07:30;100395.03;;;12.62;68.28
64876;BME280;51369;49.862;9.908;2023-02-12T12:10:02;100396.78;;;12.64;68.77
64876;BME280;51369;49.862;9.908;2023-02-12T12:12:46;100388.66;;;12.64;68.03
64876;BME280;51369;49.862;9.908;2023-02-12T12:15:19;100389.56;;;12.63;68.47
64876;BME280;51369;49.862;9.908;2023-02-12T12:26:22;100393.44;;;12.50;68.74
64876;BME280;51369;49.862;9.908;2023-02-12T12:29:21;100387.19;;;12.47;67.93
64876;BME280;51369;49.862;9.908;2023-02-12T12:32:02;100389.03;;;12.45;69.03
64876;BME280;51369;49.862;9.908;2023-02-12T12:34:29;100384.53;;;12.44;68.58
64876;BME280;51369;49.862;9.908;2023-02-12T12:43:05;100381.94;;;12.37;68.87
64876;BME280;51369;49.862;9.908;2023-02-12T12:45:56;100382.88;;;12.35;69.03
64876;BME280;51369;49.862;9.908;2023-02-12T12:51:27;100380.09;;;12.38;69.37
64876;BME280;51369;49.862;9.908;2023-02-12T12:54:09;100385.53;;;12.38;69.22
64876;BME280;51369;49.862;9.908;2023-02-12T13:00:07;100376.25;;;12.51;69.58
64876;BME280;51369;49.862;9.908;2023-02-12T13:11:39;100373.50;;;12.53;69.32
64876;BME280;51369;49.862;9.908;2023-02-12T13:19:44;100369.88;;;12.54;68.97
64876;BME280;51369;49.862;9.908;2023-02-12T13:22:25;100367.28;;;12.48;68.68
64876;BME280;51369;49.862;9.908;2023-02-12T13:25:16;100370.09;;;12.43;68.86
64876;BME280;51369;49.862;9.908;2023-02-12T13:27:45;100373.78;;;12.39;68.78
64876;BME280;51369;49.862;9.908;2023-02-12T13:33:12;100385.72;;;12.27;68.82
64876;BME280;51369;49.862;9.908;2023-02-12T13:35:40;100386.75;;;12.20;69.06
64876;BME280;51369;49.862;9.908;2023-02-12T13:38:07;100378.72;;;12.14;68.75
64876;BME280;51369;49.862;9.908;2023-02-12T13:40:34;100389.69;;;12.08;69.64
64876;BME280;51369;49.862;9.908;2023-02-12T13:46:03;100385.44;;;11.92;69.94
64876;BME280;51369;49.862;9.908;2023-02-12T13:51:26;100389.31;;;11.74;69.95
64876;BME280;51369;49.862;9.908;2023-02-12T13:54:10;100391.19;;;11.69;70.60
64876;BME280;51369;49.862;9.908;2023-02-12T13:59:02;100387.75;;;11.58;71.01
64876;BME280;51369;49.862;9.908;2023-02-12T14:01:46;100385.19;;;11.49;70.81
64876;BME280;51369;49.862;9.908;2023-02-12T14:09:29;100388.09;;;11.33;70.83
64876;BME280;51369;49.862;9.908;2023-02-12T14:11:57;100388.16;;;11.29;71.10
64876;BME280;51369;49.862;9.908;2023-02-12T14:14:30;100384.66;;;11.21;70.99
64876;BME280;51369;49.862;9.908;2023-02-12T14:16:57;100388.28;;;11.18;72.01
64876;BME280;51369;49.862;9.908;2023-02-12T14:24:54;100383.91;;;11.09;72.15
64876;BME280;51369;49.862;9.908;2023-02-12T14:27:28;100391.13;;;11.07;72.76
64876;BME280;51369;49.862;9.908;2023-02-12T14:37:52;100379.53;;;10.98;72.39
64876;BME280;51369;49.862;9.908;2023-02-12T14:43:00;100382.34;;;10.90;72.43
64876;BME280;51369;49.862;9.908;2023-02-12T14:45:36;100371.59;;;10.84;71.97
64876;BME280;51369;49.862;9.908;2023-02-12T14:48:03;100371.63;;;10.83;72.05
64876;BME280;51369;49.862;9.908;2023-02-12T14:50:42;100373.50;;;10.76;72.42
64876;BME280;51369;49.862;9.908;2023-02-12T14:53:28;100382.53;;;10.75;71.66
64876;BME280;51369;49.862;9.908;2023-02-12T14:55:56;100380.72;;;10.74;72.79
64876;BME280;51369;49.862;9.908;2023-02-12T14:58:23;100374.47;;;10.70;72.30
64876;BME280;51369;49.862;9.908;2023-02-12T15:00:52;100380.81;;;10.66;72.49
64876;BME280;51369;49.862;9.908;2023-02-12T15:03:22;100379.97;;;10.61;72.19
64876;BME280;51369;49.862;9.908;2023-02-12T15:06:36;100377.34;;;10.54;72.92
64876;BME280;51369;49.862;9.908;2023-02-12T15:09:06;100371.94;;;10.54;72.65
64876;BME280;51369;49.862;9.908;2023-02-12T15:11:44;100372.91;;;10.48;72.53
64876;BME280;51369;49.862;9.908;2023-02-12T15:19:42;100374.88;;;10.35;72.40
64876;BME280;51369;49.862;9.908;2023-02-12T15:22:23;100370.41;;;10.31;72.38
64876;BME280;51369;49.862;9.908;2023-02-12T15:24:51;100375.81;;;10.31;72.87
64876;BME280;51369;49.862;9.908;2023-02-12T15:27:18;100365.97;;;10.27;72.84
64876;BME280;51369;49.862;9.908;2023-02-12T15:29:49;100366.88;;;10.25;72.22